createdAt,value
2017-09-09T00:00:01.492Z,19.20
2017-09-09T00:02:31.700Z,24.50
2017-09-09T00:05:01.114Z,17.80
2017-09-09T00:07:30.551Z,20.70
2017-09-09T00:10:00.740Z,20.43
2017-09-09T00:12:30.365Z,20.53
2017-09-09T00:15:00.539Z,19.07
2017-09-09T00:17:30.185Z,22.13
2017-09-09T00:20:00.127Z,25.57
2017-09-09T00:22:29.433Z,18.33
2017-09-09T00:24:58.756Z,27.60
2017-09-09T00:27:28.554Z,23.30
2017-09-09T00:29:58.077Z,16.67
2017-09-09T00:32:27.525Z,22.33
2017-09-09T00:34:57.048Z,13.23
2017-09-09T00:37:26.297Z,13.83
2017-09-09T00:39:55.737Z,14.37
2017-09-09T00:42:25.777Z,17.40
2017-09-09T00:44:55.181Z,13.40
2017-09-09T00:47:24.479Z,12.70
2017-09-09T00:49:54.632Z,11.87
2017-09-09T00:52:23.894Z,14.33
2017-09-09T00:54:53.124Z,11.80
2017-09-09T00:57:23.242Z,11.30
2017-09-09T00:59:52.516Z,15.27
2017-09-09T01:02:22.534Z,15.53
2017-09-09T01:04:51.820Z,13.47
2017-09-09T01:07:21.747Z,16.07
2017-09-09T01:09:51.956Z,12.83
2017-09-09T01:12:21.231Z,13.60
2017-09-09T01:14:51.866Z,15.07
2017-09-09T01:17:22.007Z,16.00
2017-09-09T01:19:52.155Z,14.17
2017-09-09T01:22:21.338Z,15.17
2017-09-09T01:24:51.506Z,16.00
2017-09-09T01:27:21.957Z,18.27
2017-09-09T01:29:51.246Z,13.93
2017-09-09T01:32:20.395Z,14.90
2017-09-09T01:34:51.114Z,17.00
2017-09-09T01:37:20.566Z,18.50
2017-09-09T01:39:50.470Z,17.50
2017-09-09T01:42:19.571Z,20.50
2017-09-09T01:44:48.757Z,19.90
2017-09-09T01:47:19.097Z,17.30
2017-09-09T01:49:49.041Z,20.73
2017-09-09T01:52:18.237Z,16.57
2017-09-09T01:54:47.569Z,18.83
2017-09-09T01:57:17.479Z,17.00
2017-09-09T01:59:46.631Z,21.13
2017-09-09T02:02:16.108Z,19.30
2017-09-09T02:04:45.229Z,17.77
2017-09-09T02:07:14.372Z,21.60
2017-09-09T02:09:43.893Z,20.57
2017-09-09T02:12:13.032Z,21.20
2017-09-09T02:14:42.153Z,17.50
2017-09-09T02:17:11.398Z,22.37
2017-09-09T02:19:40.655Z,22.47
2017-09-09T02:22:09.877Z,22.30
2017-09-09T02:24:39.995Z,24.53
2017-09-09T02:27:09.110Z,25.83
2017-09-09T02:29:38.237Z,29.40
2017-09-09T02:32:07.536Z,27.63
2017-09-09T02:34:37.469Z,29.67
2017-09-09T02:37:06.859Z,30.23
2017-09-09T02:39:36.108Z,33.90
2017-09-09T02:42:06.074Z,35.40
2017-09-09T02:44:35.237Z,25.37
2017-09-09T02:47:04.706Z,30.70
2017-09-09T02:49:35.546Z,24.77
2017-09-09T02:52:05.037Z,26.93
2017-09-09T02:54:34.202Z,26.97
2017-09-09T02:57:04.153Z,23.57
2017-09-09T02:59:33.295Z,20.10
2017-09-09T03:02:02.626Z,16.93
2017-09-09T03:04:31.754Z,16.17
2017-09-09T03:07:00.879Z,13.57
2017-09-09T03:09:30.260Z,14.43
2017-09-09T03:11:59.368Z,16.13
2017-09-09T03:14:28.484Z,14.03
2017-09-09T03:16:57.752Z,15.97
2017-09-09T03:19:26.874Z,14.23
2017-09-09T03:21:56.311Z,15.80
2017-09-09T03:24:25.709Z,19.00
2017-09-09T03:26:55.629Z,16.33
2017-09-09T03:29:24.766Z,20.67
2017-09-09T03:31:54.083Z,18.40
2017-09-09T03:34:24.037Z,17.00
2017-09-09T03:36:53.166Z,20.70
2017-09-09T03:39:22.589Z,20.50
2017-09-09T03:41:51.831Z,19.53
2017-09-09T03:44:20.994Z,21.93
2017-09-09T03:46:51.165Z,19.80
2017-09-09T03:49:20.310Z,21.00
2017-09-09T03:51:49.592Z,26.13
2017-09-09T03:54:19.293Z,18.13
2017-09-09T03:56:48.425Z,24.90
2017-09-09T03:59:17.583Z,18.27
2017-09-09T04:01:46.897Z,27.77
2017-09-09T04:04:16.083Z,19.33
2017-09-09T04:06:45.385Z,20.50
2017-09-09T04:09:15.483Z,20.60
2017-09-09T04:11:45.500Z,28.33
2017-09-09T04:14:15.471Z,25.57
2017-09-09T04:16:45.110Z,31.20
2017-09-09T04:19:14.354Z,27.13
2017-09-09T04:21:43.749Z,20.30
2017-09-09T04:24:13.401Z,21.30
2017-09-09T04:26:42.666Z,22.57
2017-09-09T04:29:11.940Z,24.20
2017-09-09T04:31:41.443Z,29.80
2017-09-09T04:34:10.735Z,28.33
2017-09-09T04:36:39.861Z,23.37
2017-09-09T04:39:09.170Z,25.10
2017-09-09T04:41:39.117Z,25.03
2017-09-09T04:44:08.401Z,24.33
2017-09-09T04:46:37.646Z,27.67
2017-09-09T04:49:06.736Z,24.53
2017-09-09T04:51:35.937Z,26.73
2017-09-09T04:54:05.431Z,28.50
2017-09-09T04:56:34.642Z,27.97
2017-09-09T04:59:03.758Z,30.23
2017-09-09T05:01:32.940Z,24.10
2017-09-09T05:04:02.108Z,27.00
2017-09-09T05:06:31.251Z,30.47
2017-09-09T05:09:00.591Z,25.43
2017-09-09T05:11:29.737Z,24.57
2017-09-09T05:13:58.880Z,31.57
2017-09-09T05:16:28.110Z,23.57
2017-09-09T05:18:57.987Z,24.83
2017-09-09T05:21:27.114Z,29.50
2017-09-09T05:23:56.927Z,29.27
2017-09-09T05:26:26.024Z,31.43
2017-09-09T05:28:55.129Z,31.43
2017-09-09T05:31:24.593Z,28.03
2017-09-09T05:33:53.796Z,22.00
2017-09-09T05:36:23.085Z,25.93
2017-09-09T05:38:52.360Z,24.77
2017-09-09T05:41:21.574Z,23.40
2017-09-09T05:43:51.625Z,23.00
2017-09-09T05:46:21.494Z,24.40
2017-09-09T05:48:51.784Z,30.00
2017-09-09T05:51:20.913Z,22.87
2017-09-09T05:53:50.365Z,19.37
2017-09-09T05:56:20.228Z,21.60
2017-09-09T05:58:49.424Z,20.00
2017-09-09T06:01:18.997Z,19.07
2017-09-09T06:03:48.235Z,20.13
2017-09-09T06:06:19.620Z,18.33
2017-09-09T06:08:48.826Z,16.63
2017-09-09T06:11:18.035Z,16.37
2017-09-09T06:13:47.416Z,19.47
2017-09-09T06:16:18.485Z,15.67
2017-09-09T06:18:47.757Z,11.43
2017-09-09T06:21:17.176Z,12.43
2017-09-09T06:23:46.892Z,13.47
2017-09-09T06:26:16.803Z,15.50
2017-09-09T06:28:46.250Z,15.13
2017-09-09T06:31:15.677Z,13.03
2017-09-09T06:33:46.846Z,9.43
2017-09-09T06:36:16.452Z,8.50
2017-09-09T06:38:46.474Z,8.03
2017-09-09T06:41:15.876Z,8.93
2017-09-09T06:43:45.483Z,9.47
2017-09-09T06:46:15.722Z,10.97
2017-09-09T06:48:44.852Z,9.93
2017-09-09T06:51:14.915Z,7.10
2017-09-09T06:53:44.062Z,7.20
2017-09-09T06:56:13.216Z,9.47
2017-09-09T06:58:43.283Z,6.97
2017-09-09T07:01:12.514Z,10.30
2017-09-09T07:03:41.618Z,8.03
2017-09-09T07:06:11.009Z,13.53
2017-09-09T07:08:40.104Z,12.00
2017-09-09T07:11:09.222Z,11.30
2017-09-09T07:13:39.295Z,9.07
2017-09-09T07:16:08.518Z,8.73
2017-09-09T07:18:38.453Z,15.33
2017-09-09T07:21:07.722Z,18.23
2017-09-09T07:23:36.997Z,17.17
2017-09-09T07:26:06.102Z,16.70
2017-09-09T07:28:35.417Z,18.43
2017-09-09T07:31:04.655Z,19.37
2017-09-09T07:33:34.080Z,14.40
2017-09-09T07:36:03.628Z,16.30
2017-09-09T07:38:33.090Z,15.30
2017-09-09T07:41:02.456Z,18.20
2017-09-09T07:43:33.154Z,15.70
2017-09-09T07:46:02.304Z,18.37
2017-09-09T07:48:31.483Z,18.67
2017-09-09T07:51:00.784Z,20.90
2017-09-09T07:53:29.893Z,20.57
2017-09-09T07:55:59.772Z,20.90
2017-09-09T07:58:29.380Z,19.40
2017-09-09T08:00:59.298Z,26.53
2017-09-09T08:03:28.442Z,19.70
2017-09-09T08:05:57.772Z,23.73
2017-09-09T08:08:27.055Z,18.47
2017-09-09T08:10:56.387Z,20.23
2017-09-09T08:13:25.883Z,22.50
2017-09-09T08:15:55.962Z,23.57
2017-09-09T08:18:25.112Z,23.23
2017-09-09T08:20:55.066Z,27.47
2017-09-09T08:23:25.454Z,22.70
2017-09-09T08:25:55.901Z,28.30
2017-09-09T08:28:25.932Z,33.43
2017-09-09T08:30:55.101Z,24.17
2017-09-09T08:33:25.222Z,24.53
2017-09-09T08:35:55.724Z,22.37
2017-09-09T08:38:26.504Z,22.27
2017-09-09T08:40:57.712Z,25.27
2017-09-09T08:43:26.965Z,24.80
2017-09-09T08:45:56.477Z,25.67
2017-09-09T08:48:26.415Z,25.63
2017-09-09T08:50:55.638Z,24.73
2017-09-09T08:53:24.973Z,25.57
2017-09-09T08:55:54.103Z,29.30
2017-09-09T08:58:23.261Z,28.80
2017-09-09T09:00:52.608Z,31.50
2017-09-09T09:03:21.854Z,25.07
2017-09-09T09:05:51.312Z,28.03
2017-09-09T09:08:20.814Z,26.97
2017-09-09T09:10:50.125Z,26.70
2017-09-09T09:13:19.417Z,24.17
2017-09-09T09:15:49.070Z,27.30
2017-09-09T09:18:18.315Z,34.30
2017-09-09T09:20:48.417Z,29.70
2017-09-09T09:23:17.747Z,26.60
2017-09-09T09:25:47.868Z,23.37
2017-09-09T09:28:17.317Z,26.80
2017-09-09T09:30:47.206Z,21.97
2017-09-09T09:33:16.592Z,23.10
2017-09-09T09:35:45.825Z,18.20
2017-09-09T09:38:16.353Z,20.80
2017-09-09T09:40:45.687Z,18.33
2017-09-09T09:43:15.068Z,20.13
2017-09-09T09:45:45.581Z,19.33
2017-09-09T09:48:15.203Z,20.93
2017-09-09T09:50:44.907Z,21.37
2017-09-09T09:53:14.292Z,23.80
2017-09-09T09:55:43.538Z,18.43
2017-09-09T09:58:13.068Z,17.63
2017-09-09T10:00:42.355Z,16.00
2017-09-09T10:03:11.608Z,16.30
2017-09-09T10:05:40.706Z,21.27
2017-09-09T10:08:09.965Z,14.10
2017-09-09T10:10:39.059Z,18.37
2017-09-09T10:13:08.163Z,17.97
2017-09-09T10:15:37.421Z,12.53
2017-09-09T10:18:06.543Z,13.67
2017-09-09T10:20:36.606Z,13.23
2017-09-09T10:23:05.922Z,14.07
2017-09-09T10:25:35.961Z,18.47
2017-09-09T10:28:05.977Z,14.83
2017-09-09T10:30:36.340Z,20.10
2017-09-09T10:33:05.476Z,17.07
2017-09-09T10:35:34.577Z,16.60
2017-09-09T10:38:04.000Z,18.70
2017-09-09T10:40:33.198Z,24.07
2017-09-09T10:43:03.085Z,23.57
2017-09-09T10:45:32.331Z,23.20
2017-09-09T10:48:02.252Z,31.50
2017-09-09T10:50:31.405Z,24.20
2017-09-09T10:53:00.756Z,19.53
2017-09-09T10:55:30.186Z,20.03
2017-09-09T10:57:59.298Z,14.50
2017-09-09T11:00:28.601Z,13.80
2017-09-09T11:02:57.739Z,11.97
2017-09-09T11:05:26.976Z,13.10
2017-09-09T11:07:57.026Z,20.53
2017-09-09T11:10:27.033Z,13.43
2017-09-09T11:12:56.292Z,12.03
2017-09-09T11:15:25.941Z,7.77
2017-09-09T11:17:55.145Z,14.67
2017-09-09T11:20:27.161Z,8.53
2017-09-09T11:22:56.406Z,16.43
2017-09-09T11:25:25.557Z,12.43
2017-09-09T11:27:54.906Z,8.57
2017-09-09T11:30:24.186Z,11.83
2017-09-09T11:32:54.098Z,10.50
2017-09-09T11:35:23.534Z,11.00
2017-09-09T11:37:52.716Z,10.87
2017-09-09T11:40:21.910Z,10.47
2017-09-09T11:42:51.229Z,9.47
2017-09-09T11:45:20.447Z,11.00
2017-09-09T11:47:50.427Z,9.10
2017-09-09T11:50:19.967Z,7.60
2017-09-09T11:52:49.233Z,13.87
2017-09-09T11:55:19.249Z,13.70
2017-09-09T11:57:48.496Z,6.70
2017-09-09T12:00:18.479Z,9.83
2017-09-09T12:02:48.636Z,10.57
2017-09-09T12:05:18.434Z,10.67
2017-09-09T12:07:48.624Z,14.10
2017-09-09T12:10:18.582Z,12.10
2017-09-09T12:12:48.073Z,14.50
2017-09-09T12:15:17.321Z,12.80
2017-09-09T12:17:46.649Z,14.90
2017-09-09T12:20:16.991Z,16.90
2017-09-09T12:22:46.279Z,11.50
2017-09-09T12:25:15.477Z,10.60
2017-09-09T12:27:45.144Z,11.77
2017-09-09T12:30:15.271Z,10.43
2017-09-09T12:32:44.573Z,7.40
2017-09-09T12:35:14.089Z,12.40
2017-09-09T12:37:43.495Z,7.27
2017-09-09T12:40:12.637Z,7.43
2017-09-09T12:42:41.866Z,5.03
2017-09-09T12:45:11.010Z,5.07
2017-09-09T12:47:40.094Z,4.70
2017-09-09T12:50:09.551Z,5.70
2017-09-09T12:52:38.630Z,5.13
2017-09-09T12:55:07.776Z,3.47
2017-09-09T12:57:37.195Z,3.80
2017-09-09T13:00:06.348Z,4.33
2017-09-09T13:02:35.581Z,3.50
2017-09-09T13:05:06.019Z,4.73
2017-09-09T13:07:35.220Z,5.47
2017-09-09T13:10:04.653Z,6.50
2017-09-09T13:12:34.170Z,4.57
2017-09-09T13:15:03.292Z,5.43
2017-09-09T13:17:33.167Z,6.40
2017-09-09T13:20:02.582Z,3.43
2017-09-09T13:22:31.715Z,4.97
2017-09-09T13:25:00.895Z,6.53
2017-09-09T13:27:30.194Z,3.00
2017-09-09T13:30:00.725Z,3.27
2017-09-09T13:32:29.900Z,4.30
2017-09-09T13:34:59.421Z,2.47
2017-09-09T13:37:29.349Z,3.67
2017-09-09T13:39:58.642Z,4.03
2017-09-09T13:42:27.895Z,2.17
2017-09-09T13:44:57.810Z,1.90
2017-09-09T13:47:29.954Z,1.90
2017-09-09T13:50:01.434Z,2.73
2017-09-09T13:52:33.235Z,3.90
2017-09-09T13:55:09.744Z,2.50
2017-09-09T13:57:42.777Z,3.53
2017-09-09T14:00:13.128Z,2.23
2017-09-09T14:02:42.449Z,2.13
2017-09-09T14:05:14.328Z,2.33
2017-09-09T14:07:43.866Z,1.83
2017-09-09T14:10:13.294Z,1.20
2017-09-09T14:12:42.517Z,3.67
2017-09-09T14:15:12.118Z,0.97
2017-09-09T14:17:42.201Z,1.03
2017-09-09T14:20:12.879Z,0.93
2017-09-09T14:22:48.712Z,0.90
2017-09-09T14:25:18.682Z,0.80
2017-09-09T14:27:48.392Z,0.70
2017-09-09T14:30:18.532Z,0.90
2017-09-09T14:32:51.576Z,0.90
2017-09-09T14:35:22.835Z,1.03
2017-09-09T14:37:53.368Z,0.60
2017-09-09T14:40:23.472Z,2.20
2017-09-09T14:42:52.727Z,1.03
2017-09-09T14:45:21.856Z,1.83
2017-09-09T14:47:52.414Z,0.80
2017-09-09T14:50:21.660Z,2.40
2017-09-09T14:52:52.117Z,1.23
2017-09-09T14:55:21.369Z,1.53
2017-09-09T14:57:51.438Z,0.90
2017-09-09T15:00:22.319Z,1.00
2017-09-09T15:02:51.445Z,1.07
2017-09-09T15:05:22.547Z,1.00
2017-09-09T15:07:51.872Z,0.70
2017-09-09T15:10:21.556Z,1.10
2017-09-09T15:12:52.002Z,1.00
2017-09-09T15:15:21.254Z,5.50
2017-09-09T15:17:51.336Z,2.93
2017-09-09T15:20:20.675Z,1.30
2017-09-09T15:22:51.366Z,3.23
2017-09-09T15:25:21.722Z,0.90
2017-09-09T15:27:50.978Z,1.40
2017-09-09T15:30:20.282Z,1.47
2017-09-09T15:32:49.595Z,1.97
2017-09-09T15:35:19.133Z,2.20
2017-09-09T15:37:48.811Z,1.43
2017-09-09T15:40:18.154Z,1.60
2017-09-09T15:42:47.303Z,3.40
2017-09-09T15:45:16.542Z,2.93
2017-09-09T15:47:46.435Z,1.53
2017-09-09T15:50:23.241Z,3.80
2017-09-09T15:52:52.441Z,2.00
2017-09-09T15:55:26.279Z,1.83
2017-09-09T15:57:56.125Z,2.33
2017-09-09T16:00:26.126Z,1.50
2017-09-09T16:02:56.709Z,3.40
2017-09-09T16:05:26.804Z,2.97
2017-09-09T16:07:58.886Z,1.63
2017-09-09T16:10:42.369Z,2.40
2017-09-09T16:13:15.266Z,2.80
2017-09-09T16:15:46.047Z,3.03
2017-09-09T16:18:21.198Z,3.30
2017-09-09T16:20:53.556Z,2.40
2017-09-09T16:23:23.747Z,1.60
2017-09-09T16:25:52.866Z,1.30
2017-09-09T16:28:22.039Z,1.43
2017-09-09T16:30:52.046Z,1.20
2017-09-09T16:33:21.177Z,1.87
2017-09-09T16:35:50.355Z,2.80
2017-09-09T16:38:20.297Z,1.60
2017-09-09T16:40:49.458Z,2.83
2017-09-09T16:43:20.029Z,2.00
2017-09-09T16:45:50.087Z,2.23
2017-09-09T16:48:20.229Z,1.87
2017-09-09T16:50:49.460Z,1.00
2017-09-09T16:53:23.594Z,1.50
2017-09-09T16:55:53.683Z,1.60
2017-09-09T16:58:22.964Z,1.67
2017-09-09T17:00:52.281Z,2.03
2017-09-09T17:03:21.773Z,1.83
2017-09-09T17:05:50.890Z,6.80
2017-09-09T17:08:20.975Z,1.73
2017-09-09T17:10:50.181Z,5.00
2017-09-09T17:13:19.364Z,2.30
2017-09-09T17:15:49.973Z,2.83
2017-09-09T17:18:19.186Z,1.90
2017-09-09T17:20:48.491Z,3.63
2017-09-09T17:23:17.796Z,6.97
2017-09-09T17:25:46.903Z,1.63
2017-09-09T17:28:17.031Z,2.30
2017-09-09T17:30:47.298Z,3.37
2017-09-09T17:33:17.292Z,1.57
2017-09-09T17:35:46.521Z,4.73
2017-09-09T17:38:16.100Z,1.70
2017-09-09T17:40:45.767Z,1.80
2017-09-09T17:43:15.493Z,2.20
2017-09-09T17:45:46.373Z,1.77
2017-09-09T17:48:15.800Z,1.80
2017-09-09T17:50:47.179Z,3.13
2017-09-09T17:53:16.325Z,3.43
2017-09-09T17:55:47.540Z,3.20
2017-09-09T17:58:16.774Z,4.87
2017-09-09T18:00:47.193Z,2.80
2017-09-09T18:03:23.977Z,10.60
2017-09-09T18:05:55.189Z,3.30
2017-09-09T18:08:26.055Z,2.43
2017-09-09T18:10:56.788Z,3.10
2017-09-09T18:13:26.575Z,2.47
2017-09-09T18:15:56.389Z,8.63
2017-09-09T18:18:25.624Z,4.90
2017-09-09T18:20:54.707Z,2.13
2017-09-09T18:23:23.993Z,2.30
2017-09-09T18:25:53.151Z,5.93
2017-09-09T18:28:22.367Z,2.10
2017-09-09T18:30:55.286Z,15.13
2017-09-09T18:33:24.751Z,4.90
2017-09-09T18:35:54.395Z,3.93
2017-09-09T18:38:26.714Z,11.93
2017-09-09T18:41:01.935Z,4.60
2017-09-09T18:43:31.067Z,2.87
2017-09-09T18:46:01.098Z,5.43
2017-09-09T18:48:30.397Z,3.33
2017-09-09T18:51:00.654Z,2.80
2017-09-09T18:53:29.750Z,4.70
2017-09-09T18:55:58.851Z,3.87
2017-09-09T18:58:28.315Z,2.30
2017-09-09T19:00:58.250Z,2.73
2017-09-09T19:03:27.349Z,7.90
2017-09-09T19:05:56.680Z,4.87
2017-09-09T19:08:26.581Z,4.23
2017-09-09T19:10:56.545Z,4.07
2017-09-09T19:13:25.844Z,2.50
2017-09-09T19:15:54.951Z,1.97
2017-09-09T19:18:24.817Z,4.20
2017-09-09T19:20:54.838Z,3.13
2017-09-09T19:23:24.898Z,3.07
2017-09-09T19:25:54.230Z,5.13
2017-09-09T19:28:23.401Z,3.80
2017-09-09T19:30:52.609Z,3.70
2017-09-09T19:33:22.706Z,13.17
2017-09-09T19:35:52.589Z,10.40
2017-09-09T19:38:21.749Z,8.30
2017-09-09T19:40:51.155Z,7.27
2017-09-09T19:43:20.278Z,7.00
2017-09-09T19:45:49.384Z,9.30
2017-09-09T19:48:18.866Z,5.13
2017-09-09T19:50:47.962Z,9.17
2017-09-09T19:53:17.065Z,9.30
2017-09-09T19:55:46.237Z,8.00
2017-09-09T19:58:15.430Z,50.43
2017-09-09T20:00:44.526Z,10.40
2017-09-09T20:03:13.748Z,5.83
2017-09-09T20:05:42.891Z,8.00
2017-09-09T20:08:12.968Z,6.80
2017-09-09T20:10:42.369Z,12.17
2017-09-09T20:13:12.353Z,11.30
2017-09-09T20:15:41.688Z,6.63
2017-09-09T20:18:11.191Z,7.53
2017-09-09T20:20:40.460Z,12.90
2017-09-09T20:23:10.608Z,6.03
2017-09-09T20:25:40.546Z,9.33
2017-09-09T20:28:09.825Z,13.53
2017-09-09T20:30:39.177Z,12.00
2017-09-09T20:33:09.189Z,5.60
2017-09-09T20:35:38.524Z,11.73
2017-09-09T20:38:08.568Z,15.43
2017-09-09T20:40:37.982Z,6.10
2017-09-09T20:43:07.278Z,9.60
2017-09-09T20:45:37.801Z,7.93
2017-09-09T20:48:07.182Z,13.17
2017-09-09T20:50:38.024Z,12.93
2017-09-09T20:53:07.461Z,7.20
2017-09-09T20:55:36.940Z,9.73
2017-09-09T20:58:07.099Z,11.63
2017-09-09T21:00:37.719Z,8.60
2017-09-09T21:03:06.995Z,9.43
2017-09-09T21:05:36.906Z,6.80
2017-09-09T21:08:06.291Z,12.00
2017-09-09T21:10:35.472Z,9.53
2017-09-09T21:13:04.604Z,10.17
2017-09-09T21:15:34.030Z,11.40
2017-09-09T21:18:03.143Z,8.70
2017-09-09T21:20:32.231Z,10.83
2017-09-09T21:23:01.391Z,6.57
2017-09-09T21:25:30.529Z,16.60
2017-09-09T21:27:59.767Z,13.37
2017-09-09T21:30:29.176Z,11.77
2017-09-09T21:32:59.306Z,11.47
2017-09-09T21:35:28.485Z,9.30
2017-09-09T21:37:57.889Z,17.50
2017-09-09T21:40:27.148Z,5.43
2017-09-09T21:42:56.244Z,9.47
2017-09-09T21:45:25.650Z,8.63
2017-09-09T21:47:55.613Z,15.33
2017-09-09T21:50:25.641Z,11.53
2017-09-09T21:52:55.625Z,16.50
2017-09-09T21:55:24.833Z,7.73
2017-09-09T21:57:55.477Z,18.03
2017-09-09T22:00:24.916Z,13.10
2017-09-09T22:02:54.065Z,8.40
2017-09-09T22:05:23.193Z,7.77
2017-09-09T22:07:52.451Z,14.83
2017-09-09T22:10:21.796Z,11.40
2017-09-09T22:12:50.878Z,15.83
2017-09-09T22:15:20.250Z,8.77
2017-09-09T22:17:49.546Z,16.03
2017-09-09T22:20:19.786Z,9.00
2017-09-09T22:22:49.487Z,14.33
2017-09-09T22:25:19.218Z,9.33
2017-09-09T22:27:49.122Z,11.80
2017-09-09T22:30:18.536Z,17.47
2017-09-09T22:32:47.733Z,17.67
2017-09-09T22:35:16.921Z,18.23
2017-09-09T22:37:48.286Z,16.70
2017-09-09T22:40:17.498Z,14.50
2017-09-09T22:42:46.726Z,12.10
2017-09-09T22:45:16.071Z,16.73
2017-09-09T22:47:46.028Z,12.53
2017-09-09T22:50:15.283Z,12.90
2017-09-09T22:52:45.909Z,16.43
2017-09-09T22:55:15.175Z,13.10
2017-09-09T22:57:44.430Z,11.93
2017-09-09T23:00:14.450Z,18.20
2017-09-09T23:02:43.926Z,25.37
2017-09-09T23:05:13.613Z,21.73
2017-09-09T23:07:43.506Z,17.83
2017-09-09T23:10:12.809Z,16.97
2017-09-09T23:12:42.226Z,18.87
2017-09-09T23:15:11.566Z,14.27
2017-09-09T23:17:42.006Z,17.80
2017-09-09T23:20:11.469Z,22.70
2017-09-09T23:22:40.979Z,19.83
2017-09-09T23:25:10.484Z,18.40
2017-09-09T23:27:41.044Z,18.10
2017-09-09T23:30:11.233Z,16.33
2017-09-09T23:32:40.841Z,20.83
2017-09-09T23:35:10.372Z,18.23
2017-09-09T23:37:39.815Z,20.70
2017-09-09T23:40:09.128Z,17.60
2017-09-09T23:42:38.331Z,20.43
2017-09-09T23:45:08.092Z,26.83
2017-09-09T23:47:37.336Z,22.47
2017-09-09T23:50:06.995Z,18.23
2017-09-09T23:52:36.784Z,17.90
2017-09-09T23:55:05.944Z,19.30
2017-09-09T23:57:36.574Z,21.10
